Alamo, NM

2:32 PM MDT on August 27, 2016 (GMT -0600)
Belen | | Change Station

Elev 5194 ft 34.65 °N, 106.83 °W | Updated 17 minutes ago

Scattered Clouds
Scattered Clouds
83 °F
Feels Like 83 °F
N
10
Wind Variable Wind from SE

Today
High -- | Low -- °F
--% Chance of Precip.
Yesterday
High -- | Low -- °F
Precip. -- in
Pressure 30.11 in
Visibility 10.0 miles
Clouds Scattered Clouds 8000 ft
Dew Point 43 °F
Humidity 24%
Rainfall 0.00 in
Snow Depth Not available.
6:40 AM 7:42 PM
Waning Crescent, 22% visible
METAR KE80 272015Z AUTO 13009KT 10SM VCTS SCT080 28/06 A3011 RMK AO2 LTG DSNT SW AND W T02820060
Pressure 30.11 in
Visibility 10.0 miles
Clouds Scattered Clouds 8000 ft
Dew Point 43 °F
Humidity 24%
Rainfall 0.00 in
Snow Depth Not available.
6:40 AM 7:42 PM
Waning Crescent, 22% visible
METAR KE80 272015Z AUTO 13009KT 10SM VCTS SCT080 28/06 A3011 RMK AO2 LTG DSNT SW AND W T02820060

10-Day Weather Forecast

Almanac

Astronomy

Aug. 27, 2016 Rise Set
Actual Time
Civil Twilight
Nautical Twilight
Astronomical Twilight
Moon
Length of Visible Light
Length of Day
Tomorrow will be .
, % of the Moon is Illuminated

Today's Extremes

State Highs State Lows

Community

WunderPhotos

Upload Photos

1,935,434 photos uploaded!

WunderBlog® & News

Nearby

Air Quality

  Air Quality AQ Index Pollutant
Not available.

Snow Depth

Station Depth Elevation

Earthquake Activity

City Distance Mag. Time & Date
Minimum magnitude displayed is 2.5.

Coastal Water Temperatures

Place Temperature

Stations

Nearby Weather Stations

Station Location Temp. Windchill Dew Point Humidity Wind Precip. Elev Updated Type
                   

Watches & Warnings

There are currently no watches in effect.